In Rescue
 
Open Full Screen Window  High Contrast Mode
Wind Gusting 16 knots
11
November 29, 2022 10:22 AM EST
Weather Information
Wind Direction
  160 °
Wind Speed
  11 kt (13 mph)
Wind Gust
  16 kt (18 mph)
Altimeter
29.91 in
Visibility
7 SM
Temperature
07° C
45° F
Dewpoint
06° C
43° F
Humidity
93%
1hr Rain Fall
00.00 in.
24hr Rain Fall
00.00 in.
Sky Condition
Overcast @ 3,100 ft
VFR

METAR KIRS 291522Z AUTO 16011G16KT 7SM OVC031 07/06 A2991 RMK AO2 T00700058

FAA Disclaimer: The data displayed is for advisory purposes only and is not to be used for flight planning or operations.